createdAt,value
2023-04-03T00:00:29.212Z,5.90
2023-04-03T00:03:34.254Z,4.90
2023-04-03T00:06:37.171Z,5.53
2023-04-03T00:09:40.002Z,5.47
2023-04-03T00:12:42.867Z,4.83
2023-04-03T00:15:46.047Z,5.20
2023-04-03T00:18:50.272Z,4.97
2023-04-03T00:21:54.526Z,5.10
2023-04-03T00:24:57.742Z,4.60
2023-04-03T00:28:00.996Z,5.00
2023-04-03T00:31:04.061Z,4.60
2023-04-03T00:34:08.279Z,4.47
2023-04-03T00:37:11.298Z,4.53
2023-04-03T00:40:16.790Z,5.00
2023-04-03T00:43:25.125Z,5.17
2023-04-03T00:46:28.116Z,4.17
2023-04-03T00:49:32.385Z,4.00
2023-04-03T00:52:35.749Z,4.27
2023-04-03T00:55:39.762Z,4.60
2023-04-03T00:58:48.548Z,4.13
2023-04-03T01:01:51.921Z,4.47
2023-04-03T01:04:56.535Z,4.33
2023-04-03T01:08:00.012Z,4.83
2023-04-03T01:11:02.888Z,4.37
2023-04-03T01:14:07.141Z,4.83
2023-04-03T01:17:31.552Z,4.27
2023-04-03T01:21:01.977Z,3.97
2023-04-03T01:24:43.217Z,4.17
2023-04-03T01:27:46.275Z,3.83
2023-04-03T01:30:55.254Z,4.20
2023-04-03T01:34:00.333Z,4.03
2023-04-03T01:37:03.354Z,3.77
2023-04-03T01:40:07.988Z,4.23
2023-04-03T01:43:11.070Z,4.23
2023-04-03T01:46:14.028Z,3.93
2023-04-03T01:49:18.422Z,4.63
2023-04-03T01:52:21.257Z,3.73
2023-04-03T01:55:24.160Z,4.00
2023-04-03T01:58:27.266Z,4.23
2023-04-03T02:01:30.303Z,4.13
2023-04-03T02:04:34.702Z,3.70
2023-04-03T02:07:37.556Z,4.00
2023-04-03T02:10:40.616Z,3.67
2023-04-03T02:13:43.698Z,4.67
2023-04-03T02:16:46.646Z,4.23
2023-04-03T02:19:51.225Z,4.10
2023-04-03T02:22:54.092Z,3.53
2023-04-03T02:26:08.437Z,3.50
2023-04-03T02:29:11.548Z,3.00
2023-04-03T02:32:14.384Z,3.63
2023-04-03T02:35:18.820Z,3.73
2023-04-03T02:38:21.856Z,3.10
2023-04-03T02:41:26.480Z,3.60
2023-04-03T02:44:29.532Z,3.23
2023-04-03T02:47:32.404Z,3.23
2023-04-03T02:50:36.895Z,3.50
2023-04-03T02:53:39.884Z,3.33
2023-04-03T02:56:43.338Z,3.50
2023-04-03T02:59:46.209Z,3.23
2023-04-03T03:02:50.730Z,3.47
2023-04-03T03:06:04.751Z,2.70
2023-04-03T03:09:08.238Z,3.17
2023-04-03T03:12:11.186Z,3.43
2023-04-03T03:15:14.501Z,2.93
2023-04-03T03:18:17.354Z,2.50
2023-04-03T03:21:21.821Z,2.77
2023-04-03T03:24:24.852Z,2.70
2023-04-03T03:27:27.669Z,3.00
2023-04-03T03:30:30.499Z,3.00
2023-04-03T03:33:33.912Z,2.80
2023-04-03T03:36:38.332Z,2.77
2023-04-03T03:39:41.192Z,3.13
2023-04-03T03:42:44.050Z,2.83
2023-04-03T03:45:47.533Z,3.20
2023-04-03T03:48:50.480Z,2.67
2023-04-03T03:51:54.870Z,3.07
2023-04-03T03:54:57.860Z,3.00
2023-04-03T03:58:02.019Z,2.30
2023-04-03T04:01:06.714Z,2.30
2023-04-03T04:04:09.919Z,2.60
2023-04-03T04:07:14.338Z,2.73
2023-04-03T04:10:17.321Z,2.87
2023-04-03T04:13:20.252Z,2.93
2023-04-03T04:16:23.111Z,3.47
2023-04-03T04:19:26.059Z,3.03
2023-04-03T04:22:30.247Z,4.03
2023-04-03T04:25:33.955Z,4.43
2023-04-03T04:28:36.823Z,3.67
2023-04-03T04:31:39.729Z,3.60
2023-04-03T04:34:42.598Z,3.33
2023-04-03T04:37:46.769Z,3.17
2023-04-03T04:40:50.241Z,3.70
2023-04-03T04:43:53.755Z,3.27
2023-04-03T04:46:56.580Z,3.47
2023-04-03T04:49:59.413Z,2.60
2023-04-03T04:53:03.748Z,3.37
2023-04-03T04:56:07.392Z,3.53
2023-04-03T04:59:10.286Z,2.90
2023-04-03T05:02:13.229Z,3.00
2023-04-03T05:05:16.459Z,3.10
2023-04-03T05:08:20.811Z,3.40
2023-04-03T05:11:25.250Z,3.20
2023-04-03T05:14:28.199Z,3.10
2023-04-03T05:17:31.214Z,3.10
2023-04-03T05:20:34.634Z,3.30
2023-04-03T05:23:38.836Z,3.60
2023-04-03T05:26:41.914Z,3.43
2023-04-03T05:29:45.372Z,3.20
2023-04-03T05:32:48.383Z,3.23
2023-04-03T05:35:51.523Z,4.17
2023-04-03T05:38:57.222Z,4.10
2023-04-03T05:42:00.330Z,3.47
2023-04-03T05:45:03.158Z,3.07
2023-04-03T05:48:06.288Z,3.60
2023-04-03T05:51:15.829Z,3.13
2023-04-03T05:54:23.949Z,3.17
2023-04-03T05:57:27.090Z,2.97
2023-04-03T06:00:30.034Z,3.37
2023-04-03T06:03:33.198Z,4.00
2023-04-03T06:06:47.266Z,3.47
2023-04-03T06:09:53.205Z,3.30
2023-04-03T06:12:56.193Z,3.17
2023-04-03T06:15:59.545Z,3.37
2023-04-03T06:19:02.434Z,3.57
2023-04-03T06:22:05.800Z,3.53
2023-04-03T06:25:11.096Z,3.40
2023-04-03T06:28:14.395Z,4.13
2023-04-03T06:31:18.049Z,3.87
2023-04-03T06:34:21.271Z,3.13
2023-04-03T06:37:27.018Z,3.10
2023-04-03T06:40:31.353Z,4.57
2023-04-03T06:43:34.793Z,3.83
2023-04-03T06:46:37.957Z,3.67
2023-04-03T06:49:41.111Z,4.00
2023-04-03T06:52:44.046Z,3.40
2023-04-03T06:55:49.144Z,3.80
2023-04-03T06:58:52.565Z,4.33
2023-04-03T07:01:55.586Z,4.00
2023-04-03T07:04:58.771Z,4.17
2023-04-03T07:08:01.759Z,3.03
2023-04-03T07:11:06.857Z,3.73
2023-04-03T07:14:09.827Z,3.13
2023-04-03T07:17:12.697Z,3.77
2023-04-03T07:20:16.129Z,3.33
2023-04-03T07:23:19.596Z,4.00
2023-04-03T07:26:24.281Z,3.30
2023-04-03T07:29:27.337Z,3.80
2023-04-03T07:32:30.924Z,3.90
2023-04-03T07:35:33.743Z,3.20
2023-04-03T07:38:37.577Z,3.40
2023-04-03T07:41:41.973Z,3.70
2023-04-03T07:44:44.898Z,4.13
2023-04-03T07:47:48.896Z,3.43
2023-04-03T07:50:52.288Z,3.70
2023-04-03T07:53:55.399Z,4.23
2023-04-03T07:57:00.174Z,4.27
2023-04-03T08:00:03.533Z,3.80
2023-04-03T08:03:07.517Z,3.90
2023-04-03T08:06:15.785Z,4.10
2023-04-03T08:09:19.611Z,4.43
2023-04-03T08:12:23.795Z,4.77
2023-04-03T08:15:26.735Z,4.33
2023-04-03T08:18:29.639Z,4.53
2023-04-03T08:21:32.458Z,4.07
2023-04-03T08:24:36.530Z,5.00
2023-04-03T08:27:41.881Z,4.77
2023-04-03T08:30:44.795Z,5.13
2023-04-03T08:33:48.351Z,4.20
2023-04-03T08:36:51.312Z,4.73
2023-04-03T08:39:54.376Z,4.60
2023-04-03T08:43:14.644Z,3.97
2023-04-03T08:46:21.302Z,4.13
2023-04-03T08:49:30.122Z,4.07
2023-04-03T08:52:38.359Z,4.50
2023-04-03T08:55:44.709Z,4.93
2023-04-03T08:58:55.872Z,4.37
2023-04-03T09:02:01.315Z,4.33
2023-04-03T09:05:13.269Z,3.80
2023-04-03T09:08:25.047Z,3.93
2023-04-03T09:11:38.046Z,3.90
2023-04-03T09:14:47.450Z,4.07
2023-04-03T09:18:01.443Z,4.53
2023-04-03T09:21:14.131Z,3.60
2023-04-03T09:24:19.282Z,4.23
2023-04-03T09:27:22.414Z,4.37
2023-04-03T09:30:28.496Z,4.80
2023-04-03T09:33:32.709Z,3.57
2023-04-03T09:36:46.344Z,3.60
2023-04-03T09:39:54.481Z,4.50
2023-04-03T09:43:01.647Z,3.70
2023-04-03T09:46:30.671Z,4.10
2023-04-03T09:49:35.942Z,3.10
2023-04-03T09:52:39.477Z,3.97
2023-04-03T09:55:46.409Z,3.70
2023-04-03T09:58:51.771Z,3.37
2023-04-03T10:02:05.182Z,3.60
2023-04-03T10:05:29.244Z,3.60
2023-04-03T10:08:34.093Z,2.80
2023-04-03T10:11:36.920Z,3.07
2023-04-03T10:14:41.632Z,3.70
2023-04-03T10:17:56.236Z,3.03
2023-04-03T10:21:09.706Z,3.20
2023-04-03T10:24:20.298Z,2.77
2023-04-03T10:27:34.859Z,4.03
2023-04-03T10:30:48.285Z,3.80
2023-04-03T10:34:04.096Z,3.40
2023-04-03T10:37:16.244Z,3.67
2023-04-03T10:40:32.175Z,3.57
2023-04-03T10:43:40.073Z,2.70
2023-04-03T10:46:48.270Z,2.70
2023-04-03T10:50:03.602Z,3.10
2023-04-03T10:53:14.487Z,3.70
2023-04-03T10:56:23.971Z,2.43
2023-04-03T10:59:31.656Z,2.73
2023-04-03T11:02:39.494Z,2.93
2023-04-03T11:05:46.002Z,2.30
2023-04-03T11:08:56.079Z,2.03
2023-04-03T11:12:06.122Z,2.27
2023-04-03T11:15:14.675Z,2.13
2023-04-03T11:18:22.487Z,2.70
2023-04-03T11:21:31.666Z,2.13
2023-04-03T11:24:36.614Z,2.47
2023-04-03T11:27:46.864Z,2.13
2023-04-03T11:30:57.592Z,2.43
2023-04-03T11:34:09.908Z,3.33
2023-04-03T11:37:24.535Z,2.03
2023-04-03T11:40:31.005Z,2.50
2023-04-03T11:43:35.424Z,2.27
2023-04-03T11:46:57.636Z,1.97
2023-04-03T11:50:03.445Z,1.40
2023-04-03T11:53:33.232Z,2.00
2023-04-03T11:56:36.171Z,1.33
2023-04-03T11:59:39.819Z,1.27
2023-04-03T12:02:53.735Z,1.57
2023-04-03T12:05:59.336Z,1.63
2023-04-03T12:09:04.051Z,1.37
2023-04-03T12:12:28.142Z,1.10
2023-04-03T12:15:55.699Z,1.63
2023-04-03T12:19:03.648Z,1.50
2023-04-03T12:22:09.988Z,1.53
2023-04-03T12:25:50.775Z,1.40
2023-04-03T12:28:54.760Z,1.30
2023-04-03T12:32:09.806Z,1.53
2023-04-03T12:35:28.930Z,1.10
2023-04-03T12:39:08.219Z,1.73
2023-04-03T12:42:25.665Z,1.17
2023-04-03T12:45:28.604Z,1.33
2023-04-03T12:48:32.986Z,1.87
2023-04-03T12:51:41.555Z,1.63
2023-04-03T12:54:47.277Z,1.73
2023-04-03T12:57:51.729Z,1.40
2023-04-03T13:01:05.224Z,1.83
2023-04-03T13:04:08.237Z,1.57
2023-04-03T13:07:22.128Z,1.43
2023-04-03T13:10:25.315Z,1.40
2023-04-03T13:13:29.923Z,1.67
2023-04-03T13:16:33.256Z,1.27
2023-04-03T13:19:36.108Z,1.10
2023-04-03T13:22:44.613Z,1.50
2023-04-03T13:25:48.880Z,1.17
2023-04-03T13:28:53.916Z,1.60
2023-04-03T13:31:58.867Z,1.67
2023-04-03T13:35:15.725Z,1.60
2023-04-03T13:38:27.209Z,1.63
2023-04-03T13:41:33.346Z,1.33
2023-04-03T13:44:40.450Z,1.23
2023-04-03T13:47:47.115Z,1.77
2023-04-03T13:50:56.788Z,1.60
2023-04-03T13:54:02.447Z,1.50
2023-04-03T13:57:14.995Z,1.67
2023-04-03T14:00:39.247Z,1.43
2023-04-03T14:03:46.113Z,1.40
2023-04-03T14:06:49.681Z,1.77
2023-04-03T14:09:52.805Z,1.50
2023-04-03T14:12:56.532Z,1.80
2023-04-03T14:16:13.021Z,1.43
2023-04-03T14:19:25.020Z,1.50
2023-04-03T14:22:29.646Z,1.10
2023-04-03T14:25:33.085Z,1.30
2023-04-03T14:28:36.621Z,1.30
2023-04-03T14:31:41.256Z,1.10
2023-04-03T14:34:44.930Z,0.97
2023-04-03T14:37:49.003Z,0.83
2023-04-03T14:40:52.520Z,0.80
2023-04-03T14:43:55.976Z,1.50
2023-04-03T14:47:00.490Z,1.03
2023-04-03T14:50:05.700Z,1.33
2023-04-03T14:53:08.669Z,0.73
2023-04-03T14:56:16.141Z,1.30
2023-04-03T14:59:21.030Z,1.37
2023-04-03T15:02:31.022Z,0.97
2023-04-03T15:05:34.103Z,0.90
2023-04-03T15:08:37.037Z,1.07
2023-04-03T15:11:39.890Z,1.00
2023-04-03T15:14:57.253Z,1.00
2023-04-03T15:18:04.598Z,0.90
2023-04-03T15:21:07.806Z,0.80
2023-04-03T15:24:11.898Z,0.83
2023-04-03T15:27:16.278Z,0.70
2023-04-03T15:30:20.953Z,0.87
2023-04-03T15:33:25.779Z,1.03
2023-04-03T15:36:34.136Z,0.80
2023-04-03T15:39:37.610Z,1.00
2023-04-03T15:42:41.276Z,0.87
2023-04-03T15:45:44.867Z,1.00
2023-04-03T15:48:50.527Z,1.20
2023-04-03T15:51:53.534Z,1.17
2023-04-03T15:54:56.372Z,0.80
2023-04-03T15:57:59.691Z,0.90
2023-04-03T16:01:03.317Z,1.00
2023-04-03T16:04:09.315Z,0.70
2023-04-03T16:07:12.234Z,1.33
2023-04-03T16:10:17.339Z,1.00
2023-04-03T16:13:20.402Z,0.90
2023-04-03T16:16:24.020Z,1.27
2023-04-03T16:19:28.526Z,1.23
2023-04-03T16:22:32.038Z,1.30
2023-04-03T16:25:34.886Z,0.90
2023-04-03T16:28:37.929Z,1.20
2023-04-03T16:31:41.406Z,1.27
2023-04-03T16:34:45.697Z,0.80
2023-04-03T16:37:48.536Z,1.20
2023-04-03T16:40:51.608Z,0.93
2023-04-03T16:43:54.657Z,1.40
2023-04-03T16:46:57.674Z,1.10
2023-04-03T16:50:01.932Z,1.53
2023-04-03T16:53:04.885Z,1.03
2023-04-03T16:56:08.234Z,1.30
2023-04-03T16:59:11.196Z,1.03
2023-04-03T17:02:14.069Z,1.20
2023-04-03T17:05:18.492Z,1.20
2023-04-03T17:08:21.521Z,1.37
2023-04-03T17:11:24.539Z,1.47
2023-04-03T17:14:27.571Z,1.30
2023-04-03T17:17:30.645Z,1.13
2023-04-03T17:20:37.076Z,0.77
2023-04-03T17:23:42.975Z,1.33
2023-04-03T17:26:45.826Z,1.00
2023-04-03T17:29:48.932Z,1.17
2023-04-03T17:32:51.835Z,1.73
2023-04-03T17:35:57.835Z,1.40
2023-04-03T17:39:00.758Z,1.30
2023-04-03T17:42:03.610Z,1.20
2023-04-03T17:45:07.704Z,1.20
2023-04-03T17:48:11.695Z,2.00
2023-04-03T17:51:17.950Z,1.60
2023-04-03T17:54:20.847Z,1.47
2023-04-03T17:57:23.694Z,1.50
2023-04-03T18:00:26.530Z,1.43
2023-04-03T18:03:29.513Z,1.40
2023-04-03T18:06:38.512Z,1.80
2023-04-03T18:09:42.048Z,1.40
2023-04-03T18:12:45.057Z,1.23
2023-04-03T18:15:47.946Z,1.20
2023-04-03T18:18:57.658Z,1.60
2023-04-03T18:22:15.682Z,1.60
2023-04-03T18:25:18.706Z,1.60
2023-04-03T18:28:22.601Z,1.57
2023-04-03T18:31:27.335Z,1.67
2023-04-03T18:34:30.358Z,1.63
2023-04-03T18:37:34.714Z,1.67
2023-04-03T18:40:38.014Z,1.53
2023-04-03T18:43:41.069Z,1.80
2023-04-03T18:46:44.110Z,1.90
2023-04-03T18:49:46.983Z,2.00
2023-04-03T18:52:51.372Z,1.40
2023-04-03T18:55:54.313Z,1.17
2023-04-03T18:58:57.289Z,1.37
2023-04-03T19:02:01.795Z,0.93
2023-04-03T19:05:05.277Z,1.20
2023-04-03T19:08:09.571Z,1.23
2023-04-03T19:11:12.464Z,1.63
2023-04-03T19:14:17.023Z,1.40
2023-04-03T19:17:20.234Z,0.97
2023-04-03T19:20:23.386Z,1.27
2023-04-03T19:23:28.080Z,1.27
2023-04-03T19:26:32.489Z,1.37
2023-04-03T19:29:35.354Z,1.93
2023-04-03T19:32:38.288Z,1.70
2023-04-03T19:35:42.006Z,1.50
2023-04-03T19:38:46.591Z,1.47
2023-04-03T19:41:49.864Z,1.27
2023-04-03T19:44:52.946Z,1.67
2023-04-03T19:47:59.314Z,1.90
2023-04-03T19:51:04.118Z,2.40
2023-04-03T19:54:08.326Z,1.53
2023-04-03T19:57:11.278Z,2.07
2023-04-03T20:00:15.120Z,1.70
2023-04-03T20:03:18.011Z,1.73
2023-04-03T20:06:21.613Z,1.80
2023-04-03T20:09:27.139Z,1.50
2023-04-03T20:12:29.993Z,1.93
2023-04-03T20:15:40.282Z,2.03
2023-04-03T20:18:43.214Z,2.83
2023-04-03T20:21:46.371Z,1.63
2023-04-03T20:24:50.920Z,2.03
2023-04-03T20:27:54.132Z,2.13
2023-04-03T20:30:57.047Z,1.40
2023-04-03T20:33:59.988Z,1.67
2023-04-03T20:37:02.930Z,1.67
2023-04-03T20:40:09.553Z,1.50
2023-04-03T20:43:12.408Z,1.83
2023-04-03T20:46:19.531Z,1.60
2023-04-03T20:49:23.146Z,1.60
2023-04-03T20:52:26.268Z,2.10
2023-04-03T20:55:31.304Z,2.47
2023-04-03T20:58:34.418Z,1.63
2023-04-03T21:01:37.310Z,1.53
2023-04-03T21:04:45.182Z,1.43
2023-04-03T21:08:25.748Z,1.73
2023-04-03T21:12:05.652Z,1.63
2023-04-03T21:15:45.955Z,2.03
2023-04-03T21:19:10.600Z,1.70
2023-04-03T21:22:14.657Z,1.80
2023-04-03T21:25:17.506Z,2.17
2023-04-03T21:28:21.421Z,1.77
2023-04-03T21:31:24.679Z,2.37
2023-04-03T21:34:30.768Z,2.40
2023-04-03T21:37:35.095Z,2.17
2023-04-03T21:40:38.111Z,1.90
2023-04-03T21:43:41.398Z,1.73
2023-04-03T21:46:44.344Z,2.03
2023-04-03T21:49:48.784Z,1.90
2023-04-03T21:52:54.361Z,2.17
2023-04-03T21:55:58.329Z,2.10
2023-04-03T21:59:03.135Z,2.50
2023-04-03T22:02:06.335Z,2.00
2023-04-03T22:05:11.038Z,1.60
2023-04-03T22:08:13.942Z,2.20
2023-04-03T22:11:17.484Z,2.00
2023-04-03T22:14:20.309Z,2.33
2023-04-03T22:17:23.217Z,1.60
2023-04-03T22:20:27.394Z,2.33
2023-04-03T22:23:30.473Z,2.27
2023-04-03T22:26:34.212Z,1.80
2023-04-03T22:29:37.036Z,1.73
2023-04-03T22:32:39.888Z,1.97
2023-04-03T22:35:48.159Z,1.60
2023-04-03T22:38:51.074Z,1.70
2023-04-03T22:41:53.897Z,1.87
2023-04-03T22:44:56.932Z,2.17
2023-04-03T22:48:00.262Z,2.53
2023-04-03T22:51:08.435Z,2.00
2023-04-03T22:54:11.415Z,2.17
2023-04-03T22:57:14.350Z,2.00
2023-04-03T23:00:17.651Z,1.70
2023-04-03T23:03:20.583Z,2.10
2023-04-03T23:06:24.778Z,1.40
2023-04-03T23:09:27.628Z,2.00
2023-04-03T23:12:30.465Z,1.80
2023-04-03T23:15:33.334Z,1.90
2023-04-03T23:18:39.620Z,2.20
2023-04-03T23:21:45.739Z,2.57
2023-04-03T23:24:48.670Z,1.80
2023-04-03T23:27:52.547Z,2.23
2023-04-03T23:30:59.248Z,1.73
2023-04-03T23:34:02.095Z,2.33
2023-04-03T23:37:06.473Z,2.30
2023-04-03T23:40:10.846Z,1.83
2023-04-03T23:43:13.919Z,2.20
2023-04-03T23:46:16.807Z,1.80
2023-04-03T23:49:19.834Z,2.73
2023-04-03T23:52:24.078Z,2.50
2023-04-03T23:55:27.024Z,1.87
2023-04-03T23:58:29.891Z,2.10
